createdAt,value
2018-08-03T00:01:43.168Z,96031.42
2018-08-03T00:04:14.896Z,96028.19
2018-08-03T00:06:45.027Z,96034.13
2018-08-03T00:09:15.127Z,96027.86
2018-08-03T00:11:45.389Z,96026.56
2018-08-03T00:14:15.475Z,96026.23
2018-08-03T00:16:45.795Z,96024.39
2018-08-03T00:19:15.905Z,96021.88
2018-08-03T00:21:46.129Z,96020.83
2018-08-03T00:24:16.207Z,96022.42
2018-08-03T00:26:46.341Z,96019.47
2018-08-03T00:29:16.457Z,96015.70
2018-08-03T00:31:46.646Z,96019.53
2018-08-03T00:34:16.770Z,96019.30
2018-08-03T00:36:46.941Z,96019.84
2018-08-03T00:39:17.494Z,96022.88
2018-08-03T00:41:47.627Z,96024.52
2018-08-03T00:44:17.873Z,96014.77
2018-08-03T00:46:48.027Z,96017.73
2018-08-03T00:49:18.248Z,96020.98
2018-08-03T00:51:48.472Z,96015.86
2018-08-03T00:54:19.727Z,96019.42
2018-08-03T00:56:51.451Z,96019.96
2018-08-03T00:59:21.651Z,96018.39
2018-08-03T01:01:51.986Z,96014.38
2018-08-03T01:04:22.007Z,96013.59
2018-08-03T01:06:52.924Z,96019.11
2018-08-03T01:09:23.526Z,96014.80
2018-08-03T01:11:53.759Z,95983.37
2018-08-03T01:14:23.375Z,96019.50
2018-08-03T01:16:53.407Z,96022.51
2018-08-03T01:19:23.498Z,96020.94
2018-08-03T01:21:53.494Z,96021.81
2018-08-03T01:24:23.502Z,96019.94
2018-08-03T01:26:53.637Z,96023.51
2018-08-03T01:29:23.705Z,96016.45
2018-08-03T01:31:53.335Z,96018.66
2018-08-03T01:34:23.289Z,96017.34
2018-08-03T01:36:53.288Z,96017.92
2018-08-03T01:39:28.170Z,96013.88
2018-08-03T01:41:58.245Z,96015.80
2018-08-03T01:44:28.338Z,96014.77
2018-08-03T01:46:58.439Z,96013.43
2018-08-03T01:49:28.537Z,96014.30
2018-08-03T01:51:59.362Z,96008.66
2018-08-03T01:54:29.369Z,96006.25
2018-08-03T01:56:59.540Z,96009.28
2018-08-03T01:59:29.560Z,96008.72
2018-08-03T02:01:59.645Z,96018.20
2018-08-03T02:04:29.598Z,96017.67
2018-08-03T02:06:59.655Z,96014.14
2018-08-03T02:09:29.622Z,96011.43
2018-08-03T02:11:59.710Z,96016.04
2018-08-03T02:14:29.688Z,96015.22
2018-08-03T02:17:00.747Z,96009.58
2018-08-03T02:19:30.792Z,96015.00
2018-08-03T02:22:00.967Z,96012.31
2018-08-03T02:24:31.096Z,96013.17
2018-08-03T02:27:01.159Z,95947.39
2018-08-03T02:29:31.250Z,96010.22
2018-08-03T02:32:02.043Z,96007.55
2018-08-03T02:34:32.208Z,96009.40
2018-08-03T02:37:02.328Z,96009.17
2018-08-03T02:39:32.432Z,96007.01
2018-08-03T02:42:02.556Z,96005.36
2018-08-03T02:44:34.887Z,96007.57
2018-08-03T02:47:04.966Z,96005.67
2018-08-03T02:49:34.978Z,95998.90
2018-08-03T02:52:04.993Z,95997.88
2018-08-03T02:54:35.025Z,95999.45
2018-08-03T02:57:05.102Z,95993.20
2018-08-03T02:59:35.113Z,95992.70
2018-08-03T03:02:05.153Z,96000.09
2018-08-03T03:04:35.155Z,95999.31
2018-08-03T03:07:04.808Z,95999.31
2018-08-03T03:09:35.254Z,95996.30
2018-08-03T03:12:05.268Z,95997.13
2018-08-03T03:14:35.309Z,95997.41
2018-08-03T03:17:05.337Z,95991.46
2018-08-03T03:19:35.651Z,96006.31
2018-08-03T03:22:05.824Z,96002.82
2018-08-03T03:24:35.841Z,96006.91
2018-08-03T03:27:05.892Z,96001.71
2018-08-03T03:29:35.942Z,95998.75
2018-08-03T03:32:05.927Z,96006.61
2018-08-03T03:34:36.000Z,96004.73
2018-08-03T03:37:06.187Z,96004.45
2018-08-03T03:39:36.266Z,96006.64
2018-08-03T03:42:06.453Z,96004.75
2018-08-03T03:44:36.501Z,96005.31
2018-08-03T03:47:06.550Z,96010.78
2018-08-03T03:49:36.615Z,96012.67
2018-08-03T03:52:06.683Z,96016.97
2018-08-03T03:54:36.744Z,96010.51
2018-08-03T03:57:06.994Z,96014.56
2018-08-03T03:59:37.007Z,96009.45
2018-08-03T04:02:07.226Z,96012.16
2018-08-03T04:04:37.318Z,96007.55
2018-08-03T04:07:07.565Z,96009.73
2018-08-03T04:09:37.567Z,96014.08
2018-08-03T04:12:07.810Z,96008.66
2018-08-03T04:14:37.852Z,96010.84
2018-08-03T04:17:07.451Z,96006.25
2018-08-03T04:19:37.578Z,96005.73
2018-08-03T04:22:07.630Z,96010.85
2018-08-03T04:24:37.637Z,96011.89
2018-08-03T04:27:07.632Z,96014.59
2018-08-03T04:29:37.650Z,96016.20
2018-08-03T04:32:07.689Z,96017.27
2018-08-03T04:34:37.770Z,96025.68
2018-08-03T04:37:07.761Z,96024.02
2018-08-03T04:39:37.824Z,96024.25
2018-08-03T04:42:08.538Z,96022.91
2018-08-03T04:44:38.735Z,96019.64
2018-08-03T04:49:44.168Z,96031.44
2018-08-03T04:52:14.303Z,96028.41
2018-08-03T04:54:44.579Z,96024.63
2018-08-03T04:57:14.622Z,96024.51
2018-08-03T04:59:44.726Z,96022.28
2018-08-03T05:02:14.780Z,96029.77
2018-08-03T05:04:44.835Z,96033.18
2018-08-03T05:07:14.904Z,96030.86
2018-08-03T05:09:45.004Z,96031.33
2018-08-03T05:12:15.119Z,96027.72
2018-08-03T05:14:45.224Z,96035.23
2018-08-03T05:17:15.324Z,96029.67
2018-08-03T05:19:45.688Z,96039.84
2018-08-03T05:22:15.730Z,96038.84
2018-08-03T05:24:45.815Z,96033.25
2018-08-03T05:27:15.927Z,96034.45
2018-08-03T05:29:45.985Z,96037.55
2018-08-03T05:32:16.005Z,96034.11
2018-08-03T05:34:45.960Z,96037.16
2018-08-03T05:37:16.027Z,96033.98
2018-08-03T05:39:46.101Z,96030.80
2018-08-03T05:42:16.127Z,96036.67
2018-08-03T05:44:46.153Z,96034.33
2018-08-03T05:47:16.195Z,96031.67
2018-08-03T05:49:46.212Z,96038.00
2018-08-03T05:52:16.311Z,96037.24
2018-08-03T05:54:46.505Z,96040.47
2018-08-03T05:57:16.116Z,96040.55
2018-08-03T05:59:46.206Z,96039.53
2018-08-03T06:02:16.270Z,96043.55
2018-08-03T06:04:46.322Z,96038.80
2018-08-03T06:07:16.349Z,96036.55
2018-08-03T06:09:46.312Z,96038.13
2018-08-03T06:12:15.949Z,96036.39
2018-08-03T06:14:46.006Z,96037.69
2018-08-03T06:17:16.051Z,96037.31
2018-08-03T06:19:46.065Z,96043.78
2018-08-03T06:22:16.175Z,96033.48
2018-08-03T06:24:46.221Z,96039.91
2018-08-03T06:27:16.269Z,96034.45
2018-08-03T06:29:46.320Z,96041.64
2018-08-03T06:32:16.370Z,96052.17
2018-08-03T06:34:46.388Z,96046.48
2018-08-03T06:37:16.422Z,96047.73
2018-08-03T06:39:46.436Z,96046.98
2018-08-03T06:42:16.514Z,96042.45
2018-08-03T06:44:46.574Z,96047.59
2018-08-03T06:47:16.641Z,96046.58
2018-08-03T06:49:46.319Z,96046.91
2018-08-03T06:52:16.451Z,96049.80
2018-08-03T06:54:46.549Z,96041.61
2018-08-03T06:57:16.962Z,96051.39
2018-08-03T06:59:46.982Z,96049.59
2018-08-03T07:02:17.044Z,96049.59
2018-08-03T07:04:46.746Z,96052.10
2018-08-03T07:07:16.832Z,96053.08
2018-08-03T07:09:46.879Z,96049.79
2018-08-03T07:12:16.930Z,96046.50
2018-08-03T07:14:47.017Z,96035.27
2018-08-03T07:17:17.314Z,96036.05
2018-08-03T07:19:47.409Z,96041.32
2018-08-03T07:22:17.526Z,96034.77
2018-08-03T07:24:47.579Z,96032.30
2018-08-03T07:27:17.652Z,96031.64
2018-08-03T07:29:47.663Z,96033.77
2018-08-03T07:32:17.691Z,96038.67
2018-08-03T07:34:48.193Z,96036.90
2018-08-03T07:37:18.277Z,96033.12
2018-08-03T07:39:48.326Z,96031.32
2018-08-03T07:42:18.407Z,96030.52
2018-08-03T07:44:48.503Z,96034.52
2018-08-03T07:47:18.514Z,96036.14
2018-08-03T07:49:48.682Z,96032.05
2018-08-03T07:52:18.405Z,96036.55
2018-08-03T07:54:48.015Z,96039.80
2018-08-03T07:57:18.065Z,96044.32
2018-08-03T07:59:48.087Z,96040.44
2018-08-03T08:02:18.185Z,96044.20
2018-08-03T08:04:47.824Z,96038.98
2018-08-03T08:07:17.903Z,96042.73
2018-08-03T08:09:48.021Z,96033.94
2018-08-03T08:12:18.130Z,96038.48
2018-08-03T08:14:48.169Z,96043.48
2018-08-03T08:17:18.244Z,96032.27
2018-08-03T08:19:48.282Z,96032.13
2018-08-03T08:22:18.405Z,96032.94
2018-08-03T08:24:48.472Z,96034.98
2018-08-03T08:27:18.154Z,96038.84
2018-08-03T08:29:48.263Z,96033.05
2018-08-03T08:32:18.399Z,96030.22
2018-08-03T08:34:48.474Z,96035.14
2018-08-03T08:37:18.545Z,96036.14
2018-08-03T08:39:48.593Z,96036.03
2018-08-03T08:42:18.648Z,96031.92
2018-08-03T08:44:48.735Z,96034.98
2018-08-03T08:47:18.752Z,96029.73
2018-08-03T08:49:48.392Z,96033.55
2018-08-03T08:52:18.487Z,96036.79
2018-08-03T08:54:48.527Z,96023.91
2018-08-03T08:57:19.044Z,96032.49
2018-08-03T08:59:48.656Z,96034.12
2018-08-03T09:02:18.802Z,96031.34
2018-08-03T09:04:48.876Z,96030.44
2018-08-03T09:07:18.887Z,96039.96
2018-08-03T09:09:48.955Z,96035.47
2018-08-03T09:12:19.033Z,96026.72
2018-08-03T09:14:49.067Z,96024.96
2018-08-03T09:17:19.462Z,96022.00
2018-08-03T09:19:49.526Z,96024.39
2018-08-03T09:22:19.577Z,96016.70
2018-08-03T09:24:49.642Z,96018.09
2018-08-03T09:27:19.726Z,96015.62
2018-08-03T09:29:49.784Z,96015.86
2018-08-03T09:32:19.968Z,96015.67
2018-08-03T09:34:49.612Z,96012.66
2018-08-03T09:37:19.616Z,96012.98
2018-08-03T09:39:49.777Z,96013.55
2018-08-03T09:42:19.760Z,96014.13
2018-08-03T09:44:49.815Z,96018.11
2018-08-03T09:47:19.926Z,96006.84
2018-08-03T09:49:49.984Z,96006.16
2018-08-03T09:52:20.092Z,96007.30
2018-08-03T09:54:50.250Z,96006.47
2018-08-03T09:57:20.400Z,95997.27
2018-08-03T09:59:50.503Z,96003.77
2018-08-03T10:02:20.550Z,95990.95
2018-08-03T10:04:50.614Z,95990.74
2018-08-03T10:07:20.920Z,95993.69
2018-08-03T10:09:51.048Z,95987.18
2018-08-03T10:12:21.070Z,95993.42
2018-08-03T10:14:51.107Z,95987.00
2018-08-03T10:17:21.186Z,95985.38
2018-08-03T10:19:51.236Z,95978.30
2018-08-03T10:22:21.317Z,95985.42
2018-08-03T10:24:51.382Z,95980.09
2018-08-03T10:27:21.502Z,95983.05
2018-08-03T10:29:51.524Z,95983.81
2018-08-03T10:32:21.578Z,95979.47
2018-08-03T10:34:51.686Z,95967.33
2018-08-03T10:37:21.739Z,95973.88
2018-08-03T10:39:51.879Z,95973.42
2018-08-03T10:42:22.029Z,95969.13
2018-08-03T10:44:52.276Z,95970.53
2018-08-03T10:47:22.464Z,95967.59
2018-08-03T10:49:52.516Z,95964.65
2018-08-03T10:52:22.610Z,95970.80
2018-08-03T10:54:53.368Z,95965.62
2018-08-03T10:57:23.458Z,95958.97
2018-08-03T10:59:53.534Z,95955.81
2018-08-03T11:02:23.638Z,95960.47
2018-08-03T11:04:53.671Z,95954.66
2018-08-03T11:07:23.775Z,95950.61
2018-08-03T11:09:53.833Z,95951.89
2018-08-03T11:12:23.992Z,95953.21
2018-08-03T11:14:54.128Z,95947.05
2018-08-03T11:17:24.274Z,95943.76
2018-08-03T11:19:54.325Z,95939.10
2018-08-03T11:22:24.523Z,95941.00
2018-08-03T11:24:54.874Z,95941.45
2018-08-03T11:27:24.983Z,95941.16
2018-08-03T11:29:55.081Z,95935.99
2018-08-03T11:32:25.193Z,95931.71
2018-08-03T11:34:55.272Z,95933.02
2018-08-03T11:37:25.365Z,95921.97
2018-08-03T11:39:55.542Z,95932.67
2018-08-03T11:42:25.621Z,95927.69
2018-08-03T11:44:55.723Z,95924.98
2018-08-03T11:47:25.955Z,95915.07
2018-08-03T11:49:56.096Z,95922.55
2018-08-03T11:52:26.362Z,95924.41
2018-08-03T11:54:56.602Z,95911.34
2018-08-03T11:57:26.850Z,95908.27
2018-08-03T11:59:56.951Z,95909.60
2018-08-03T12:02:27.313Z,95914.73
2018-08-03T12:04:57.364Z,95910.69
2018-08-03T12:07:27.645Z,95916.49
2018-08-03T12:09:57.724Z,95904.91
2018-08-03T12:12:28.350Z,95901.02
2018-08-03T12:14:58.453Z,95902.67
2018-08-03T12:17:28.810Z,95901.83
2018-08-03T12:19:58.911Z,95895.94
2018-08-03T12:22:29.242Z,95898.38
2018-08-03T12:24:59.351Z,95898.81
2018-08-03T12:27:29.570Z,95901.17
2018-08-03T12:29:59.665Z,95890.09
2018-08-03T12:32:30.413Z,95898.58
2018-08-03T12:35:00.482Z,95882.67
2018-08-03T12:37:30.772Z,95891.38
2018-08-03T12:40:00.875Z,95891.05
2018-08-03T12:42:31.090Z,95883.77
2018-08-03T12:45:01.115Z,95875.83
2018-08-03T12:47:31.371Z,95877.58
2018-08-03T12:50:01.407Z,95878.73
2018-08-03T12:52:31.574Z,95872.92
2018-08-03T12:55:01.588Z,95872.63
2018-08-03T12:57:31.873Z,95877.58
2018-08-03T13:00:01.894Z,95874.54
2018-08-03T13:02:32.332Z,95875.11
2018-08-03T13:05:02.407Z,95869.56
2018-08-03T13:07:32.621Z,95869.48
2018-08-03T13:10:02.740Z,95861.63
2018-08-03T13:12:32.489Z,95856.28
2018-08-03T13:15:02.458Z,95861.63
2018-08-03T13:17:32.595Z,95860.80
2018-08-03T13:20:02.464Z,95836.06
2018-08-03T13:22:32.723Z,95843.41
2018-08-03T13:25:02.740Z,95853.63
2018-08-03T13:27:32.893Z,95850.86
2018-08-03T13:30:02.966Z,95856.11
2018-08-03T13:32:33.164Z,95851.30
2018-08-03T13:35:03.255Z,95846.77
2018-08-03T13:37:32.967Z,95840.86
2018-08-03T13:40:02.983Z,95841.59
2018-08-03T13:42:33.209Z,95839.95
2018-08-03T13:45:02.900Z,95832.97
2018-08-03T13:47:33.092Z,95830.42
2018-08-03T13:50:03.120Z,95831.09
2018-08-03T13:52:33.305Z,95832.19
2018-08-03T13:55:03.395Z,95823.53
2018-08-03T13:57:33.547Z,95829.42
2018-08-03T14:00:03.626Z,95818.05
2018-08-03T14:02:33.844Z,95810.69
2018-08-03T14:05:03.957Z,95812.92
2018-08-03T14:07:34.179Z,95816.63
2018-08-03T14:10:04.294Z,95813.54
2018-08-03T14:12:34.465Z,95809.29
2018-08-03T14:15:04.607Z,95811.83
2018-08-03T14:17:34.735Z,95804.98
2018-08-03T14:20:04.995Z,95799.35
2018-08-03T14:22:36.097Z,95802.88
2018-08-03T14:25:06.267Z,95797.48
2018-08-03T14:27:36.594Z,95798.16
2018-08-03T14:30:08.231Z,95801.22
2018-08-03T14:32:37.942Z,95794.26
2018-08-03T14:35:07.995Z,95794.21
2018-08-03T14:37:38.148Z,95796.40
2018-08-03T14:40:08.668Z,95799.39
2018-08-03T14:42:38.860Z,95792.91
2018-08-03T14:45:09.537Z,95792.69
2018-08-03T14:47:39.698Z,95786.19
2018-08-03T14:50:09.392Z,95787.20
2018-08-03T14:52:39.573Z,95783.91
2018-08-03T14:55:09.681Z,95786.27
2018-08-03T14:57:39.901Z,95774.05
2018-08-03T15:00:10.223Z,95772.53
2018-08-03T15:02:40.416Z,95775.00
2018-08-03T15:05:10.437Z,95768.33
2018-08-03T15:07:40.620Z,95771.82
2018-08-03T15:10:10.720Z,95775.03
2018-08-03T15:12:40.881Z,95773.01
2018-08-03T15:15:10.887Z,95773.52
2018-08-03T15:17:41.004Z,95768.83
2018-08-03T15:20:11.518Z,95762.81
2018-08-03T15:22:41.691Z,95757.67
2018-08-03T15:25:12.251Z,95753.75
2018-08-03T15:27:42.441Z,95760.47
2018-08-03T15:30:13.021Z,95761.44
2018-08-03T15:32:42.667Z,95755.84
2018-08-03T15:35:12.754Z,95756.59
2018-08-03T15:37:42.950Z,95752.87
2018-08-03T15:40:13.078Z,95756.47
2018-08-03T15:42:43.278Z,95749.74
2018-08-03T15:45:13.306Z,95745.56
2018-08-03T15:47:43.430Z,95746.92
2018-08-03T15:50:13.499Z,95748.48
2018-08-03T15:52:43.698Z,95737.98
2018-08-03T15:55:14.294Z,95734.25
2018-08-03T15:57:44.408Z,95733.72
2018-08-03T16:00:14.511Z,95731.20
2018-08-03T16:02:44.304Z,95732.43
2018-08-03T16:05:14.377Z,95724.42
2018-08-03T16:07:44.387Z,95730.37
2018-08-03T16:10:15.327Z,95726.70
2018-08-03T16:12:45.353Z,95720.21
2018-08-03T16:15:15.453Z,95725.06
2018-08-03T16:17:45.475Z,95726.92
2018-08-03T16:20:15.210Z,95720.88
2018-08-03T16:22:45.378Z,95727.15
2018-08-03T16:25:15.494Z,95716.44
2018-08-03T16:27:45.186Z,95715.27
2018-08-03T16:30:15.333Z,95718.37
2018-08-03T16:32:45.420Z,95725.36
2018-08-03T16:35:15.068Z,95722.14
2018-08-03T16:37:45.181Z,95721.91
2018-08-03T16:40:15.291Z,95707.67
2018-08-03T16:42:45.341Z,95705.56
2018-08-03T16:45:15.435Z,95706.52
2018-08-03T16:47:45.492Z,95703.06
2018-08-03T16:50:15.813Z,95703.06
2018-08-03T16:52:45.837Z,95703.84
2018-08-03T16:55:15.885Z,95702.64
2018-08-03T16:57:45.695Z,95698.83
2018-08-03T17:00:18.236Z,95708.64
2018-08-03T17:02:49.110Z,95706.73
2018-08-03T17:05:19.116Z,95700.13
2018-08-03T17:07:49.171Z,95704.58
2018-08-03T17:10:18.855Z,95697.33
2018-08-03T17:12:48.861Z,95696.17
2018-08-03T17:15:18.938Z,95700.73
2018-08-03T17:17:48.997Z,95694.80
2018-08-03T17:20:19.102Z,95702.00
2018-08-03T17:22:49.718Z,95702.20
2018-08-03T17:25:19.802Z,95699.02
2018-08-03T17:27:49.799Z,95693.91
2018-08-03T17:30:19.817Z,95692.66
2018-08-03T17:32:49.860Z,95695.92
2018-08-03T17:35:20.011Z,95701.59
2018-08-03T17:37:50.078Z,95693.04
2018-08-03T17:40:20.184Z,95699.71
2018-08-03T17:42:50.249Z,95693.72
2018-08-03T17:45:20.313Z,95686.59
2018-08-03T17:47:50.304Z,95694.36
2018-08-03T17:50:20.343Z,95696.47
2018-08-03T17:52:49.936Z,95700.98
2018-08-03T17:55:19.972Z,95693.81
2018-08-03T17:57:49.592Z,95700.05
2018-08-03T18:00:19.726Z,95697.96
2018-08-03T18:02:49.822Z,95698.11
2018-08-03T18:05:19.823Z,95702.63
2018-08-03T18:07:49.929Z,95697.27
2018-08-03T18:10:20.064Z,95702.17
2018-08-03T18:12:50.118Z,95703.55
2018-08-03T18:15:19.767Z,95699.30
2018-08-03T18:17:49.767Z,95702.99
2018-08-03T18:20:19.834Z,95699.98
2018-08-03T18:22:49.829Z,95702.16
2018-08-03T18:25:19.859Z,95709.66
2018-08-03T18:27:49.884Z,95702.27
2018-08-03T18:30:19.899Z,95703.63
2018-08-03T18:32:50.589Z,95705.41
2018-08-03T18:35:20.629Z,95711.69
2018-08-03T18:37:50.670Z,95717.39
2018-08-03T18:40:20.746Z,95716.58
2018-08-03T18:42:50.803Z,95711.13
2018-08-03T18:45:20.869Z,95716.21
2018-08-03T18:47:50.890Z,95715.52
2018-08-03T18:50:20.926Z,95716.70
2018-08-03T18:52:50.988Z,95713.25
2018-08-03T18:55:21.069Z,95716.59
2018-08-03T18:57:51.139Z,95716.56
2018-08-03T19:00:21.243Z,95721.61
2018-08-03T19:02:51.000Z,95727.50
2018-08-03T19:05:21.078Z,95729.44
2018-08-03T19:07:51.369Z,95724.47
2018-08-03T19:10:21.488Z,95724.83
2018-08-03T19:12:51.518Z,95726.89
2018-08-03T19:15:21.557Z,95729.64
2018-08-03T19:17:51.635Z,95741.63
2018-08-03T19:20:21.844Z,95745.39
2018-08-03T19:22:52.204Z,95741.75
2018-08-03T19:25:22.349Z,95746.81
2018-08-03T19:27:52.787Z,95750.57
2018-08-03T19:30:22.862Z,95752.00
2018-08-03T19:32:52.925Z,95756.77
2018-08-03T19:35:23.100Z,95756.29
2018-08-03T19:37:53.158Z,95753.30
2018-08-03T19:40:23.228Z,95760.66
2018-08-03T19:42:53.349Z,95751.66
2018-08-03T19:45:23.531Z,95758.61
2018-08-03T19:47:53.866Z,95758.92
2018-08-03T19:50:24.047Z,95758.41
2018-08-03T19:52:54.139Z,95757.67
2018-08-03T19:55:24.149Z,95761.03
2018-08-03T19:57:54.241Z,95761.31
2018-08-03T20:00:24.320Z,95759.11
2018-08-03T20:02:54.542Z,95760.97
2018-08-03T20:05:24.753Z,95757.35
2018-08-03T20:07:54.526Z,95762.78
2018-08-03T20:10:24.748Z,95764.98
2018-08-03T20:12:57.560Z,95760.37
2018-08-03T20:15:27.653Z,95757.34
2018-08-03T20:17:58.594Z,95760.59
2018-08-03T20:20:28.686Z,95755.59
2018-08-03T20:22:58.807Z,95759.83
2018-08-03T20:25:28.916Z,95763.03
2018-08-03T20:27:59.048Z,95761.53
2018-08-03T20:30:29.158Z,95761.64
2018-08-03T20:32:59.450Z,95769.31
2018-08-03T20:35:29.703Z,95762.09
2018-08-03T20:38:00.080Z,95763.92
2018-08-03T20:40:30.346Z,95760.91
2018-08-03T20:43:00.626Z,95762.35
2018-08-03T20:45:30.749Z,95766.91
2018-08-03T20:48:00.905Z,95769.06
2018-08-03T20:50:31.217Z,95769.00
2018-08-03T20:53:01.332Z,95763.30
2018-08-03T20:55:31.474Z,95768.35
2018-08-03T20:58:01.578Z,95771.02
2018-08-03T21:00:31.745Z,95765.30
2018-08-03T21:03:01.848Z,95769.80
2018-08-03T21:05:31.941Z,95765.45
2018-08-03T21:10:32.192Z,95762.16
2018-08-03T21:13:02.296Z,95760.95
2018-08-03T21:15:32.322Z,95762.53
2018-08-03T21:18:02.420Z,95763.23
2018-08-03T21:20:33.024Z,95761.06
2018-08-03T21:23:03.087Z,95760.25
2018-08-03T21:25:33.187Z,95763.16
2018-08-03T21:28:04.333Z,95769.72
2018-08-03T21:30:34.466Z,95763.59
2018-08-03T21:33:04.596Z,95765.06
2018-08-03T21:35:34.641Z,95760.78
2018-08-03T21:38:04.841Z,95762.06
2018-08-03T21:40:34.961Z,95765.67
2018-08-03T21:43:05.042Z,95760.77
2018-08-03T21:45:35.187Z,95763.02
2018-08-03T21:48:05.283Z,95764.38
2018-08-03T21:50:35.315Z,95761.17
2018-08-03T21:53:05.480Z,95761.17
2018-08-03T21:55:35.156Z,95754.42
2018-08-03T21:58:05.365Z,95758.52
2018-08-03T22:00:35.519Z,95759.62
2018-08-03T22:03:05.643Z,95753.27
2018-08-03T22:05:35.709Z,95760.73
2018-08-03T22:08:06.033Z,95754.54
2018-08-03T22:10:36.134Z,95752.44
2018-08-03T22:13:05.831Z,95755.00
2018-08-03T22:15:35.944Z,95753.84
2018-08-03T22:18:06.116Z,95755.59
2018-08-03T22:20:36.224Z,95760.53
2018-08-03T22:23:06.507Z,95759.56
2018-08-03T22:25:36.646Z,95759.43
2018-08-03T22:28:07.273Z,95763.42
2018-08-03T22:30:38.130Z,95763.97
2018-08-03T22:33:08.267Z,95758.66
2018-08-03T22:35:38.369Z,95762.02
2018-08-03T22:38:08.532Z,95756.15
2018-08-03T22:40:38.683Z,95757.02
2018-08-03T22:43:09.151Z,95759.23
2018-08-03T22:45:39.360Z,95761.47
2018-08-03T22:48:09.628Z,95758.31
2018-08-03T22:50:39.373Z,95757.11
2018-08-03T22:53:09.718Z,95755.94
2018-08-03T22:55:40.499Z,95755.44
2018-08-03T22:58:10.637Z,95758.16
2018-08-03T23:00:40.341Z,95752.52
2018-08-03T23:03:10.053Z,95751.54
2018-08-03T23:05:40.167Z,95752.41
2018-08-03T23:08:10.514Z,95755.19
2018-08-03T23:10:40.665Z,95750.62
2018-08-03T23:13:10.811Z,95752.06
2018-08-03T23:15:40.984Z,95748.42
2018-08-03T23:18:11.353Z,95746.57
2018-08-03T23:20:41.502Z,95739.11
2018-08-03T23:23:11.627Z,95738.58
2018-08-03T23:25:41.891Z,95744.34
2018-08-03T23:28:12.029Z,95737.91
2018-08-03T23:30:42.145Z,95732.04
2018-08-03T23:33:12.426Z,95726.34
2018-08-03T23:35:42.575Z,95735.57
2018-08-03T23:38:12.702Z,95727.09
2018-08-03T23:40:42.859Z,95728.19
2018-08-03T23:43:12.931Z,95731.17
2018-08-03T23:45:43.093Z,95727.70
2018-08-03T23:48:13.346Z,95726.48
2018-08-03T23:50:43.547Z,95725.73
2018-08-03T23:53:13.678Z,95730.19
2018-08-03T23:55:43.897Z,95725.03
2018-08-03T23:58:13.981Z,95734.38
